| time (UTC) | temp C | wind direction | speed KPH | gust KPH | rain 1hr cm | rain 24hr cm | rain mn cm | humidity % | barometer mb |
| 20260507060613 | 11 | 184 | 0.0 | 0.0 | 0.00 | 0.71 | 0.10 | 92 | 990.8 |
| 20260507060005 | 11 | 184 | 0.0 | 0.0 | 0.00 | 0.71 | 0.10 | 92 | 990.8 |
| 20260507055623 | 11 | 184 | 0.0 | 0.0 | 0.00 | 0.71 | 0.10 | 92 | 990.6 |
| 20260507054658 | 11 | 184 | 0.0 | 0.0 | 0.03 | 0.71 | 0.10 | 92 | 990.8 |
| 20260507054624 | 11 | 184 | 0.0 | 0.0 | 0.00 | 0.71 | 0.10 | 92 | 990.7 |
| 20260507053003 | 11 | 181 | 0.0 | 8.0 | 0.05 | 0.71 | 0.10 | 91 | 990.7 |
| 20260507052518 | 11 | 181 | 0.0 | 6.4 | 0.00 | 0.71 | 0.10 | 91 | 990.6 |
| 20260507051524 | 11 | 163 | 0.0 | 4.8 | 0.00 | 0.71 | 0.10 | 91 | 990.6 |
| 20260507051502 | 11 | 188 | 0.0 | 4.8 | 0.08 | 0.71 | 0.10 | 91 | 990.7 |
| 20260507050522 | 11 | 188 | 0.0 | 0.0 | 0.00 | 0.71 | 0.10 | 91 | 990.6 |
| 20260507045533 | 11 | 188 | 0.0 | 1.6 | 0.13 | 0.71 | 0.10 | 91 | 990.6 |
| 20260507044606 | 11 | 188 | 1.6 | 6.4 | 0.08 | 0.71 | 0.08 | 91 | 990.8 |
| 20260507043103 | 11 | 188 | 0.0 | 9.7 | 0.05 | 0.69 | 0.05 | 89 | 990.4 |
| 20260507042232 | 12 | 186 | 0.0 | 4.8 | 0.00 | 0.64 | 0.03 | 89 | 990.5 |
| 20260507041611 | 12 | 204 | 1.6 | 6.4 | 0.03 | 0.66 | 0.03 | 88 | 990.2 |
| 20260507041236 | 12 | 167 | 1.6 | 11.3 | 0.00 | 0.61 | 0.03 | 87 | 990.2 |
| 20260507040239 | 12 | 205 | 1.6 | 11.3 | 0.00 | 0.61 | 0.00 | 86 | 990.3 |
| 20260507040003 | 12 | 197 | 1.6 | 9.7 | 0.00 | 0.64 | 0.64 | 86 | 990.1 |
| 20260507035216 | 12 | 198 | 0.0 | 8.0 | 0.00 | 0.61 | 0.64 | 85 | 990.1 |
| 20260507034506 | 12 | 139 | 1.6 | 8.0 | 0.00 | 0.64 | 0.64 | 86 | 990.2 |
| 20260507034221 | 13 | 319 | 0.0 | 6.4 | 0.00 | 0.61 | 0.64 | 87 | 990.2 |
| 20260507033221 | 13 | 148 | 0.0 | 0.0 | 0.00 | 0.61 | 0.64 | 87 | 990.1 |
| 20260507033003 | 13 | 223 | 0.0 | 3.2 | 0.00 | 0.64 | 0.64 | 87 | 989.9 |
| 20260507031603 | 13 | 176 | 3.2 | 14.5 | 0.00 | 0.64 | 0.64 | 87 | 990.2 |
| 20260507031100 | 13 | 192 | 0.0 | 6.4 | 0.00 | 0.61 | 0.64 | 87 | 990.2 |
| 20260507030051 | 13 | 191 | 0.0 | 8.0 | 0.00 | 0.61 | 0.64 | 87 | 990.0 |
| 20260507030003 | 13 | 149 | 1.6 | 9.7 | 0.00 | 0.64 | 0.64 | 87 | 990.0 |
| 20260507025048 | 13 | 333 | 0.0 | 0.0 | 0.00 | 0.61 | 0.64 | 87 | 989.8 |
| 20260507024503 | 13 | 164 | 1.6 | 12.9 | 0.00 | 0.64 | 0.64 | 87 | 990.0 |
| 20260507024053 | 14 | 306 | 1.6 | 14.5 | 0.00 | 0.61 | 0.64 | 87 | 990.0 |
| 20260507023115 | 14 | 251 | 1.6 | 14.5 | 0.00 | 0.61 | 0.64 | 87 | 989.8 |
| 20260507023103 | 14 | 251 | 0.0 | 14.5 | 0.00 | 0.64 | 0.64 | 87 | 989.9 |
| 20260507022116 | 15 | 238 | 0.0 | 0.0 | 0.00 | 0.61 | 0.64 | 87 | 989.8 |
| 20260507021502 | 14 | 193 | 3.2 | 12.9 | 0.00 | 0.64 | 0.64 | 87 | 989.7 |
| 20260507021045 | 15 | 153 | 0.0 | 1.6 | 0.00 | 0.61 | 0.64 | 87 | 989.7 |
| 20260507020113 | 15 | 159 | 0.0 | 12.9 | 0.00 | 0.64 | 0.64 | 86 | 989.8 |
| 20260507020034 | 15 | 159 | 1.6 | 0.0 | 0.00 | 0.61 | 0.64 | 86 | 989.8 |
| 20260507015014 | 15 | 159 | 3.2 | 12.9 | 0.00 | 0.61 | 0.64 | 86 | 989.8 |
| 20260507014624 | 15 | 209 | 1.6 | 12.9 | 0.00 | 0.64 | 0.64 | 86 | 989.8 |
| 20260507014020 | 15 | 158 | 3.2 | 14.5 | 0.00 | 0.61 | 0.64 | 86 | 989.9 |
| 20260507013007 | 15 | 150 | 3.2 | 19.3 | 0.00 | 0.61 | 0.64 | 86 | 989.8 |
| 20260507013002 | 15 | 150 | 6.4 | 12.9 | 0.00 | 0.64 | 0.64 | 86 | 989.8 |
| 20260507011608 | 15 | 175 | 8.0 | 20.9 | 0.00 | 0.64 | 0.64 | 86 | 989.8 |
| 20260507010828 | 15 | 196 | 3.2 | 12.9 | 0.00 | 0.61 | 0.64 | 87 | 989.6 |
| 20260507010003 | 15 | 153 | 4.8 | 14.5 | 0.00 | 0.64 | 0.64 | 88 | 989.7 |
| 20260507005825 | 15 | 143 | 4.8 | 12.9 | 0.00 | 0.61 | 0.64 | 88 | 989.6 |
| 20260507004846 | 15 | 174 | 4.8 | 12.9 | 0.00 | 0.61 | 0.64 | 89 | 989.3 |
| 20260507004503 | 15 | 147 | 6.4 | 11.3 | 0.00 | 0.64 | 0.64 | 89 | 989.3 |
| 20260507003822 | 15 | 182 | 4.8 | 12.9 | 0.00 | 0.61 | 0.64 | 89 | 989.3 |
| 20260507003103 | 15 | 169 | 6.4 | 12.9 | 0.00 | 0.64 | 0.64 | 89 | 989.2 |
| 20260507002832 | 16 | 121 | 3.2 | 11.3 | 0.00 | 0.61 | 0.64 | 90 | 989.1 |
| 20260507001809 | 16 | 204 | 6.4 | 17.7 | 0.00 | 0.61 | 0.64 | 90 | 989.0 |
| 20260507001503 | 16 | 167 | 8.0 | 19.3 | 0.08 | 0.64 | 0.64 | 90 | 989.0 |
| 20260507000830 | 16 | 126 | 6.4 | 17.7 | 0.00 | 0.61 | 0.64 | 91 | 988.7 |
| 20260507000128 | 16 | 158 | 6.4 | 12.9 | 0.08 | 0.64 | 0.64 | 91 | 988.6 |
| 20260506234724 | 16 | 194 | 4.8 | 19.3 | 0.00 | 0.61 | 0.64 | 91 | 988.0 |
| 20260506234627 | 16 | 178 | 4.8 | 22.5 | 0.08 | 0.64 | 0.64 | 91 | 988.0 |
| 20260506233712 | 17 | 146 | 8.0 | 19.3 | 0.15 | 0.61 | 0.64 | 90 | 987.9 |
| 20260506233102 | 17 | 163 | 8.0 | 19.3 | 0.08 | 0.64 | 0.64 | 90 | 987.9 |
| 20260506232651 | 17 | 156 | 4.8 | 17.7 | 0.00 | 0.53 | 0.53 | 92 | 988.0 |
| 20260506231653 | 17 | 134 | 3.2 | 9.7 | 0.00 | 0.53 | 0.53 | 92 | 987.8 |
| 20260506231503 | 17 | 94 | 4.8 | 11.3 | 0.00 | 0.56 | 0.56 | 92 | 987.6 |
| 20260506230632 | 18 | 111 | 3.2 | 12.9 | 0.00 | 0.53 | 0.53 | 92 | 987.6 |
| 20260506230105 | 17 | 80 | 4.8 | 11.3 | 0.03 | 0.56 | 0.56 | 92 | 987.6 |
| 20260506225623 | 18 | 72 | 3.2 | 12.9 | 0.00 | 0.53 | 0.53 | 92 | 987.5 |
| 20260506224600 | 18 | 98 | 4.8 | 16.1 | 0.00 | 0.53 | 0.53 | 92 | 987.5 |
| 20260506223546 | 18 | 90 | 3.2 | 16.1 | 0.00 | 0.53 | 0.53 | 91 | 987.4 |
| 20260506223002 | 18 | 59 | 4.8 | 17.7 | 0.03 | 0.56 | 0.56 | 91 | 987.4 |
| 20260506222530 | 18 | 57 | 3.2 | 12.9 | 0.00 | 0.53 | 0.53 | 90 | 987.3 |
| 20260506221607 | 18 | 63 | 6.4 | 14.5 | 0.03 | 0.56 | 0.56 | 89 | 987.4 |
| 20260506221457 | 18 | 53 | 3.2 | 12.9 | 0.00 | 0.53 | 0.53 | 89 | 987.3 |
| 20260506220516 | 18 | 52 | 3.2 | 12.9 | 0.00 | 0.53 | 0.53 | 88 | 987.2 |
| 20260506220003 | 18 | 63 | 4.8 | 14.5 | 0.00 | 0.53 | 0.53 | 88 | 987.1 |
| 20260506215507 | 19 | 69 | 3.2 | 12.9 | 0.00 | 0.53 | 0.53 | 88 | 987.1 |
| 20260506214503 | 18 | 91 | 4.8 | 9.7 | 0.00 | 0.53 | 0.53 | 88 | 987.0 |
| 20260506213520 | 19 | 76 | 4.8 | 14.5 | 0.00 | 0.53 | 0.53 | 88 | 986.9 |
| 20260506213102 | 18 | 73 | 8.0 | 16.1 | 0.00 | 0.53 | 0.53 | 88 | 986.9 |
| 20260506211312 | 19 | 69 | 4.8 | 17.7 | 0.00 | 0.53 | 0.53 | 88 | 986.7 |
| 20260506210336 | 19 | 109 | 6.4 | 17.7 | 0.00 | 0.53 | 0.53 | 87 | 986.8 |
| 20260506205340 | 19 | 67 | 6.4 | 14.5 | 0.00 | 0.53 | 0.53 | 88 | 986.7 |
| 20260506204504 | 19 | 66 | 8.0 | 16.1 | 0.00 | 0.53 | 0.53 | 87 | 986.7 |
| 20260506203203 | 19 | 49 | 8.0 | 22.5 | 0.00 | 0.53 | 0.53 | 87 | 986.6 |
| 20260506203003 | 19 | 64 | 9.7 | 24.1 | 0.00 | 0.53 | 0.53 | 87 | 986.6 |
| 20260506201602 | 18 | 78 | 9.7 | 19.3 | 0.00 | 0.53 | 0.53 | 89 | 986.6 |
| 20260506201011 | 18 | 78 | 4.8 | 14.5 | 0.00 | 0.53 | 0.53 | 90 | 986.6 |
| 20260506200004 | 18 | 53 | 3.2 | 16.1 | 0.00 | 0.53 | 0.53 | 90 | 986.8 |
| 20260506195957 | 18 | 46 | 4.8 | 17.7 | 0.00 | 0.53 | 0.53 | 90 | 986.7 |
| 20260506194950 | 18 | 80 | 6.4 | 17.7 | 0.00 | 0.53 | 0.53 | 89 | 986.7 |
| 20260506194503 | 18 | 69 | 9.7 | 24.1 | 0.00 | 0.53 | 0.53 | 90 | 986.9 |
| 20260506193926 | 18 | 74 | 6.4 | 17.7 | 0.00 | 0.53 | 0.53 | 90 | 986.8 |
| 20260506193103 | 17 | 98 | 8.0 | 17.7 | 0.00 | 0.53 | 0.53 | 90 | 986.9 |
| 20260506192928 | 18 | 76 | 6.4 | 17.7 | 0.00 | 0.53 | 0.53 | 90 | 986.8 |
| 20260506191916 | 17 | 79 | 6.4 | 16.1 | 0.00 | 0.53 | 0.53 | 92 | 986.8 |
| 20260506191606 | 17 | 117 | 6.4 | 16.1 | 0.00 | 0.53 | 0.53 | 92 | 986.9 |
| 20260506190925 | 17 | 67 | 4.8 | 12.9 | 0.00 | 0.53 | 0.53 | 92 | 986.9 |
| 20260506185946 | 17 | 86 | 4.8 | 14.5 | 0.00 | 0.53 | 0.53 | 92 | 986.9 |
| 20260506184950 | 17 | 66 | 1.6 | 14.5 | 0.00 | 0.53 | 0.53 | 93 | 987.0 |
| 20260506184605 | 16 | 94 | 3.2 | 9.7 | 0.00 | 0.53 | 0.53 | 93 | 987.1 |
| 20260506183928 | 17 | 36 | 1.6 | 11.3 | 0.00 | 0.53 | 0.53 | 93 | 987.1 |
| 20260506182916 | 16 | 35 | 3.2 | 17.7 | 0.00 | 0.53 | 0.53 | 93 | 987.3 |
| 20260506181919 | 16 | 63 | 3.2 | 17.7 | 0.00 | 0.53 | 0.53 | 93 | 987.3 |
| 20260506175815 | 16 | 14 | 4.8 | 17.7 | 0.00 | 0.53 | 0.53 | 93 | 987.5 |
| 20260506174602 | 16 | 45 | 6.4 | 17.7 | 0.00 | 0.53 | 0.53 | 94 | 987.5 |
| 20260506173632 | 16 | 44 | 4.8 | 16.1 | 0.00 | 0.53 | 0.53 | 93 | 987.5 |
| 20260506173127 | 16 | 71 | 6.4 | 17.7 | 0.00 | 0.53 | 0.53 | 93 | 987.4 |
| 20260506171520 | 16 | 82 | 4.8 | 17.7 | 0.00 | 0.53 | 0.53 | 94 | 987.4 |
| 20260506170521 | 16 | 103 | 4.8 | 17.7 | 0.00 | 0.53 | 0.53 | 93 | 987.5 |
| 20260506170004 | 16 | 82 | 4.8 | 14.5 | 0.00 | 0.53 | 0.53 | 93 | 987.4 |
| 20260506165528 | 16 | 79 | 4.8 | 14.5 | 0.00 | 0.53 | 0.53 | 93 | 987.4 |
| 20260506164504 | 16 | 67 | 4.8 | 16.1 | 0.00 | 0.53 | 0.53 | 94 | 987.5 |
| 20260506163414 | 16 | 24 | 4.8 | 16.1 | 0.00 | 0.53 | 0.53 | 94 | 987.3 |
| 20260506163103 | 16 | 59 | 3.2 | 17.7 | 0.00 | 0.53 | 0.53 | 94 | 987.5 |
| 20260506162431 | 16 | 5 | 4.8 | 17.7 | 0.00 | 0.53 | 0.53 | 94 | 987.5 |
| 20260506161502 | 16 | 19 | 8.0 | 19.3 | 0.05 | 0.53 | 0.53 | 94 | 987.6 |
| 20260506161455 | 16 | 22 | 4.8 | 17.7 | 0.00 | 0.53 | 0.53 | 94 | 987.6 |
| 20260506155332 | 16 | 14 | 8.0 | 17.7 | 0.00 | 0.53 | 0.53 | 94 | 987.5 |
| 20260506154658 | 16 | 55 | 8.0 | 19.3 | 0.28 | 0.53 | 0.53 | 94 | 987.5 |
| 20260506154334 | 16 | 18 | 8.0 | 17.7 | 0.10 | 0.53 | 0.53 | 94 | 987.5 |
| 20260506153327 | 16 | 355 | 9.7 | 20.9 | 0.15 | 0.53 | 0.53 | 94 | 987.5 |
| 20260506153002 | 16 | 36 | 8.0 | 22.5 | 0.36 | 0.53 | 0.53 | 94 | 987.3 |
| 20260506152341 | 16 | 11 | 9.7 | 20.9 | 0.20 | 0.48 | 0.51 | 94 | 987.3 |
| 20260506151603 | 16 | 23 | 9.7 | 17.7 | 0.33 | 0.48 | 0.48 | 93 | 987.7 |
| 20260506151333 | 16 | 29 | 6.4 | 17.7 | 0.30 | 0.48 | 0.48 | 93 | 987.8 |
| 20260506150005 | 16 | 14 | 9.7 | 19.3 | 0.25 | 0.41 | 0.41 | 93 | 988.1 |
| 20260506145204 | 16 | 36 | 1.6 | 12.9 | 1.30 | 0.30 | 0.33 | 92 | 988.3 |
| 20260506144502 | 16 | 5 | 3.2 | 14.5 | 0.18 | 0.25 | 0.25 | 92 | 988.6 |
| 20260506143059 | 16 | 42 | 3.2 | 16.1 | 0.13 | 0.18 | 0.18 | 92 | 988.5 |
| 20260506142953 | 16 | 50 | 8.0 | 20.9 | 0.00 | 0.15 | 0.15 | 92 | 988.4 |
| 20260506141929 | 16 | 36 | 8.0 | 19.3 | 0.00 | 0.15 | 0.15 | 92 | 988.1 |
| 20260506141603 | 16 | 34 | 8.0 | 19.3 | 0.13 | 0.15 | 0.15 | 92 | 988.0 |
| 20260506140912 | 16 | 33 | 6.4 | 17.7 | 0.10 | 0.15 | 0.15 | 92 | 988.0 |
| 20260506135847 | 16 | 5 | 3.2 | 12.9 | 0.33 | 0.15 | 0.15 | 91 | 987.9 |
| 20260506134850 | 16 | 5 | 4.8 | 11.3 | 0.15 | 0.10 | 0.10 | 91 | 987.8 |
| 20260506134602 | 16 | 9 | 6.4 | 12.9 | 0.10 | 0.10 | 0.10 | 91 | 987.9 |
| 20260506133826 | 16 | 9 | 3.2 | 9.7 | 0.13 | 0.05 | 0.08 | 90 | 988.0 |
| 20260506133002 | 16 | 18 | 3.2 | 9.7 | 0.05 | 0.05 | 0.05 | 90 | 988.2 |
| 20260506131654 | 16 | 25 | 4.8 | 11.3 | 0.00 | 0.03 | 0.03 | 89 | 988.1 |
| 20260506131505 | 16 | 59 | 4.8 | 12.9 | 0.03 | 0.03 | 0.03 | 90 | 988.1 |
| 20260506130627 | 17 | 19 | 3.2 | 9.7 | 0.00 | 0.03 | 0.03 | 89 | 988.1 |
| 20260506130003 | 16 | 27 | 1.6 | 8.0 | 0.03 | 0.03 | 0.03 | 89 | 988.3 |
| 20260506125603 | 17 | 13 | 3.2 | 6.4 | 0.00 | 0.03 | 0.03 | 89 | 988.2 |
| 20260506124503 | 16 | 24 | 4.8 | 8.0 | 0.00 | 0.00 | 0.00 | 87 | 988.3 |
| 20260506123435 | 17 | 9 | 1.6 | 6.4 | 0.00 | 0.00 | 0.00 | 86 | 988.4 |
| 20260506123003 | 17 | 81 | 1.6 | 8.0 | 0.00 | 0.00 | 0.00 | 85 | 988.4 |
| 20260506122443 | 17 | 28 | 0.0 | 4.8 | 0.00 | 0.00 | 0.00 | 84 | 988.5 |
| 20260506121602 | 17 | 28 | 0.0 | 6.4 | 0.00 | 0.00 | 0.00 | 84 | 988.6 |
| 20260506121433 | 17 | 22 | 0.0 | 4.8 | 0.00 | 0.00 | 0.00 | 84 | 988.6 |
| 20260506120402 | 17 | 67 | 1.6 | 11.3 | 0.00 | 0.00 | 0.00 | 82 | 988.5 |
| 20260506115334 | 17 | 30 | 3.2 | 14.5 | 0.00 | 0.00 | 0.00 | 81 | 988.2 |
| 20260506114356 | 18 | 16 | 4.8 | 14.5 | 0.00 | 0.00 | 0.00 | 79 | 988.0 |
| 20260506113337 | 18 | 5 | 3.2 | 9.7 | 0.00 | 0.00 | 0.00 | 77 | 988.0 |
| 20260506113003 | 18 | 42 | 3.2 | 9.7 | 0.00 | 0.00 | 0.00 | 76 | 988.1 |
| 20260506111503 | 18 | 26 | 3.2 | 12.9 | 0.00 | 0.00 | 0.00 | 73 | 987.9 |
| 20260506111127 | 19 | 43 | 4.8 | 16.1 | 0.00 | 0.00 | 0.00 | 72 | 987.8 |
| 20260506110149 | 19 | 88 | 6.4 | 16.1 | 0.00 | 0.00 | 0.00 | 72 | 987.7 |
| 20260506110105 | 18 | 40 | 8.0 | 17.7 | 0.00 | 0.00 | 0.00 | 72 | 987.6 |
| 20260506105126 | 19 | 22 | 3.2 | 16.1 | 0.00 | 0.00 | 0.00 | 71 | 987.5 |
| 20260506104636 | 18 | 55 | 3.2 | 17.7 | 0.00 | 0.00 | 0.00 | 71 | 987.6 |
| 20260506104105 | 19 | 17 | 6.4 | 16.1 | 0.00 | 0.00 | 0.00 | 71 | 987.4 |
| 20260506103048 | 19 | 22 | 4.8 | 14.5 | 0.00 | 0.00 | 0.00 | 70 | 987.4 |
| 20260506103005 | 18 | 27 | 6.4 | 16.1 | 0.00 | 0.00 | 0.00 | 70 | 987.5 |
| 20260506102056 | 19 | 12 | 6.4 | 17.7 | 0.00 | 0.00 | 0.00 | 69 | 987.3 |
| 20260506101603 | 19 | 17 | 8.0 | 16.1 | 0.00 | 0.00 | 0.00 | 69 | 987.2 |
| 20260506101032 | 19 | 5 | 4.8 | 17.7 | 0.00 | 0.00 | 0.00 | 69 | 987.2 |
| 20260506100051 | 19 | 18 | 4.8 | 14.5 | 0.00 | 0.00 | 0.00 | 69 | 987.1 |
| 20260506094603 | 19 | 5 | 6.4 | 14.5 | 0.00 | 0.00 | 0.00 | 67 | 987.2 |
| 20260506094009 | 20 | 19 | 3.2 | 12.9 | 0.00 | 0.00 | 0.00 | 67 | 987.1 |
| 20260506093003 | 20 | 76 | 0.0 | 14.5 | 0.00 | 0.00 | 0.00 | 66 | 987.3 |
| 20260506092947 | 20 | 77 | 3.2 | 12.9 | 0.00 | 0.00 | 0.00 | 67 | 987.2 |
| 20260506091503 | 20 | 29 | 3.2 | 8.0 | 0.00 | 0.00 | 0.00 | 66 | 987.3 |
| 20260506090833 | 20 | 48 | 3.2 | 14.5 | 0.00 | 0.00 | 0.00 | 66 | 987.3 |
| 20260506090103 | 20 | 63 | 6.4 | 17.7 | 0.00 | 0.00 | 0.00 | 65 | 987.4 |
| 20260506085820 | 20 | 86 | 4.8 | 17.7 | 0.00 | 0.00 | 0.00 | 65 | 987.3 |
| 20260506084503 | 20 | 351 | 6.4 | 19.3 | 0.00 | 0.00 | 0.00 | 65 | 987.3 |
| 20260506083635 | 20 | 26 | 4.8 | 12.9 | 0.00 | 0.00 | 0.00 | 64 | 987.3 |
| 20260506083102 | 20 | 39 | 8.0 | 14.5 | 0.00 | 0.00 | 0.00 | 64 | 987.4 |
| 20260506082604 | 20 | 130 | 3.2 | 19.3 | 0.00 | 0.00 | 0.00 | 64 | 987.4 |
| 20260506081504 | 20 | 40 | 4.8 | 20.9 | 0.00 | 0.00 | 0.00 | 63 | 987.4 |
| 20260506080408 | 20 | 28 | 4.8 | 14.5 | 0.00 | 0.00 | 0.00 | 63 | 987.3 |
| 20260506080116 | 20 | 24 | 8.0 | 16.1 | 0.00 | 0.00 | 0.00 | 63 | 987.3 |
| 20260506073344 | 20 | 32 | 1.6 | 9.7 | 0.00 | 0.00 | 0.00 | 63 | 987.5 |
| 20260506073005 | 20 | 11 | 3.2 | 9.7 | 0.00 | 0.00 | 0.00 | 62 | 987.6 |
| 20260506072327 | 20 | 28 | 1.6 | 9.7 | 0.00 | 0.00 | 0.00 | 62 | 987.5 |
| 20260506071503 | 20 | 15 | 3.2 | 9.7 | 0.00 | 0.00 | 0.00 | 62 | 987.7 |
| 20260506071332 | 20 | 62 | 1.6 | 8.0 | 0.00 | 0.00 | 0.00 | 62 | 987.7 |
| 20260506070356 | 20 | 35 | 3.2 | 8.0 | 0.00 | 0.00 | 0.00 | 61 | 987.7 |
| 20260506070107 | 20 | 79 | 4.8 | 9.7 | 0.00 | 0.00 | 0.00 | 61 | 987.8 |
| 20260506062440 | 20 | 49 | 0.0 | 9.7 | 0.00 | 0.00 | 0.00 | 60 | 988.2 |
| 20260506061502 | 20 | 28 | 1.6 | 9.7 | 0.00 | 0.00 | 0.00 | 59 | 988.3 |
| 20260506061430 | 20 | 71 | 0.0 | 9.7 | 0.00 | 0.00 | 0.00 | 59 | 988.3 |